Time;durP1;ratioP1;P1;durP2;ratioP2;P2;SDS_P1;SDS_P2;PMS_P1;PMS_P2;Temp;Humidity;BMP_temperature;BMP_pressure;BME280_temperature;BME280_humidity;BME280_pressure;Samples;Min_cycle;Max_cycle;Signal;HPM_P1;HPM_P2
2021/07/09 00:01:03;;;;;;;1.70;1.60;;;;;;;14.95;100.00;101567.25;1678471;84;21043;-49
2021/07/09 00:03:29;;;;;;;1.65;1.50;;;;;;;14.93;100.00;101572.77;1674210;84;21022;-44
2021/07/09 00:05:57;;;;;;;2.52;2.02;;;;;;;14.88;100.00;101566.73;1726797;83;21420;-49
2021/07/09 00:08:24;;;;;;;2.58;1.92;;;;;;;14.84;100.00;101567.04;1660433;85;21495;-49
2021/07/09 00:10:51;;;;;;;2.75;2.05;;;;;;;14.82;100.00;101563.73;1738804;80;21030;-43
2021/07/09 00:13:18;;;;;;;1.65;1.55;;;;;;;14.79;100.00;101560.18;1773655;80;21033;-49
2021/07/09 00:15:45;;;;;;;1.70;1.60;;;;;;;14.78;100.00;101570.34;1772682;80;21867;-48
2021/07/09 00:18:11;;;;;;;3.08;1.80;;;;;;;14.77;100.00;101565.14;1754385;81;20966;-49
2021/07/09 00:20:39;;;;;;;1.85;1.62;;;;;;;14.75;100.00;101567.34;1735422;81;21034;-45
2021/07/09 00:23:05;;;;;;;4.05;2.05;;;;;;;14.71;100.00;101562.96;1687709;84;21021;-46
2021/07/09 00:25:32;;;;;;;1.95;1.80;;;;;;;14.69;100.00;101557.44;1697925;83;21007;-48
2021/07/09 00:27:58;;;;;;;2.22;1.52;;;;;;;14.67;100.00;101565.98;1695808;83;21071;-49
2021/07/09 00:30:25;;;;;;;3.62;1.98;;;;;;;14.63;100.00;101562.95;1696023;83;21668;-48
2021/07/09 00:32:51;;;;;;;2.05;1.85;;;;;;;14.59;100.00;101558.32;1687757;83;21041;-49
2021/07/09 00:35:18;;;;;;;3.15;1.70;;;;;;;14.56;100.00;101561.08;1689726;83;21030;-43
2021/07/09 00:37:44;;;;;;;2.77;2.00;;;;;;;14.54;100.00;101553.66;1687817;83;21018;-49
2021/07/09 00:40:12;;;;;;;1.77;1.67;;;;;;;14.51;100.00;101555.53;1690064;83;21810;-48
2021/07/09 00:42:38;;;;;;;2.30;1.82;;;;;;;14.49;100.00;101556.91;1735902;81;21471;-49
2021/07/09 00:45:07;;;;;;;1.92;1.72;;;;;;;14.47;100.00;101548.14;1682946;84;21386;-49
2021/07/09 00:47:34;;;;;;;3.65;2.05;;;;;;;14.44;100.00;101550.90;1716073;82;21468;-43
2021/07/09 00:50:00;;;;;;;2.55;1.98;;;;;;;14.43;100.00;101553.36;1736277;81;21571;-49
2021/07/09 00:52:26;;;;;;;2.27;2.05;;;;;;;14.42;100.00;101553.10;1676311;85;21011;-49
2021/07/09 00:54:55;;;;;;;1.98;1.75;;;;;;;14.41;100.00;101555.03;1747241;81;21419;-49
2021/07/09 00:57:21;;;;;;;1.80;1.70;;;;;;;14.39;100.00;101552.26;1743167;81;21030;-43
2021/07/09 00:59:47;;;;;;;3.45;1.72;;;;;;;14.39;100.00;101549.51;1765886;81;20978;-49
2021/07/09 01:02:14;;;;;;;3.12;2.17;;;;;;;14.34;100.00;101548.14;1747923;81;20990;-48
2021/07/09 01:04:40;;;;;;;1.85;1.45;;;;;;;14.33;100.00;101543.77;1668039;84;21422;-47
2021/07/09 01:07:07;;;;;;;3.00;1.90;;;;;;;14.30;100.00;101548.45;1735624;81;21010;-44
2021/07/09 01:09:34;;;;;;;1.90;1.60;;;;;;;14.28;100.00;101549.27;1765556;81;21014;-49
2021/07/09 01:12:01;;;;;;;1.60;1.50;;;;;;;14.29;100.00;101542.66;1755627;80;21030;-48
2021/07/09 01:14:27;;;;;;;1.35;1.25;;;;;;;14.28;100.00;101546.52;1727137;81;21500;-44
2021/07/09 01:16:54;;;;;;;1.40;1.15;;;;;;;14.26;100.00;101545.41;1719953;81;21046;-44
2021/07/09 01:19:22;;;;;;;2.27;1.80;;;;;;;14.25;100.00;101547.09;1757366;81;20999;-48
2021/07/09 01:21:48;;;;;;;1.92;1.67;;;;;;;14.23;100.00;101544.60;1756550;81;21023;-49
2021/07/09 01:24:15;;;;;;;2.27;1.55;;;;;;;14.20;100.00;101541.04;1757480;81;20980;-48
2021/07/09 01:26:41;;;;;;;1.45;1.27;;;;;;;14.16;100.00;101544.88;1757503;80;20983;-49
2021/07/09 01:29:09;;;;;;;2.37;1.87;;;;;;;14.14;100.00;101549.85;1757249;81;21026;-48
2021/07/09 01:31:35;;;;;;;2.37;1.77;;;;;;;14.13;100.00;101547.37;1756187;81;21015;-49
2021/07/09 01:34:03;;;;;;;1.82;1.67;;;;;;;14.11;100.00;101553.13;1757376;81;21007;-42
2021/07/09 01:36:30;;;;;;;2.80;1.62;;;;;;;14.07;100.00;101553.42;1745206;81;21034;-45
2021/07/09 01:38:56;;;;;;;2.25;2.08;;;;;;;14.06;100.00;101555.88;1646780;85;21038;-48
2021/07/09 01:41:22;;;;;;;2.22;1.82;;;;;;;14.05;100.00;101544.63;1701822;83;21465;-44
2021/07/09 01:43:49;;;;;;;2.80;1.90;;;;;;;14.03;100.00;101542.70;1707061;84;21049;-43
2021/07/09 01:46:15;;;;;;;1.72;1.47;;;;;;;14.01;100.00;101541.33;1720918;82;21010;-43
2021/07/09 01:48:41;;;;;;;4.28;1.70;;;;;;;14.02;100.00;101539.69;1697575;83;21030;-48
2021/07/09 01:51:08;;;;;;;1.50;1.40;;;;;;;14.04;100.00;101540.77;1690682;84;21473;-49
2021/07/09 01:53:35;;;;;;;2.08;1.65;;;;;;;14.03;100.00;101544.08;1674892;84;21481;-49
2021/07/09 01:56:01;;;;;;;1.35;1.12;;;;;;;14.03;100.00;101542.70;1676846;84;21381;-43
2021/07/09 01:58:28;;;;;;;1.87;1.37;;;;;;;14.04;100.00;101540.77;1661590;85;21018;-48
2021/07/09 02:00:54;;;;;;;3.33;1.70;;;;;;;14.03;100.00;101537.20;1700300;84;21065;-45
2021/07/09 02:03:21;;;;;;;1.25;1.15;;;;;;;14.01;100.00;101536.66;1707090;84;21006;-49
2021/07/09 02:05:47;;;;;;;1.70;1.50;;;;;;;14.00;100.00;101533.64;1707374;84;21539;-48
2021/07/09 02:08:14;;;;;;;1.22;1.12;;;;;;;14.00;100.00;101537.77;1689100;84;21513;-43
2021/07/09 02:10:43;;;;;;;1.87;1.12;;;;;;;14.00;100.00;101535.02;1643008;86;21038;-48
2021/07/09 02:13:09;;;;;;;1.95;1.42;;;;;;;13.99;100.00;101534.73;1683615;83;21484;-43
2021/07/09 02:15:39;;;;;;;2.62;1.30;;;;;;;13.99;100.00;101536.10;1664735;85;21467;-44
2021/07/09 02:18:06;;;;;;;1.52;1.42;;;;;;;13.97;100.00;101535.02;1742155;81;21026;-43
2021/07/09 02:20:34;;;;;;;2.40;1.98;;;;;;;13.99;100.00;101534.73;1761298;81;21050;-48
2021/07/09 02:23:02;;;;;;;5.92;2.12;;;;;;;13.96;100.00;101529.78;1735266;81;21002;-43
2021/07/09 02:25:28;;;;;;;8.13;1.50;;;;;;;13.94;100.00;101527.86;1681227;84;21030;-44
2021/07/09 02:27:55;;;;;;;3.20;1.80;;;;;;;13.94;100.00;101531.98;1701998;83;20997;-43
2021/07/09 02:30:26;;;;;;;1.30;1.20;;;;;;;13.99;100.00;101541.59;1686110;83;21413;-49
2021/07/09 02:32:52;;;;;;;3.45;1.70;;;;;;;14.04;100.00;101546.27;1709925;83;20984;-43
2021/07/09 02:35:21;;;;;;;2.35;2.00;;;;;;;14.06;100.00;101543.52;1744012;81;20982;-49
2021/07/09 02:37:48;;;;;;;2.45;2.00;;;;;;;14.14;100.00;101543.51;1736839;81;20987;-49
2021/07/09 02:40:21;;;;;;;6.37;2.15;;;;;;;14.20;100.00;101544.61;1757117;81;21021;-49
2021/07/09 02:42:51;;;;;;;2.15;1.92;;;;;;;14.26;100.00;101542.66;1735654;81;21010;-49
2021/07/09 02:45:19;;;;;;;3.03;1.70;;;;;;;14.32;100.00;101542.13;1664666;84;21014;-49
2021/07/09 02:47:48;;;;;;;1.70;1.60;;;;;;;14.38;100.00;101543.75;1710583;82;20965;-49
2021/07/09 02:50:19;;;;;;;1.87;1.67;;;;;;;14.48;100.00;101542.91;1708918;83;21076;-45
2021/07/09 02:52:45;;;;;;;1.47;1.37;;;;;;;14.54;100.00;101547.30;1712773;82;20989;-49
2021/07/09 02:55:13;;;;;;;3.42;1.87;;;;;;;14.62;100.00;101542.06;1718526;83;21069;-44
2021/07/09 02:57:41;;;;;;;4.47;1.82;;;;;;;14.71;100.00;101541.48;1716574;83;21070;-49
2021/07/09 03:00:13;;;;;;;2.87;2.05;;;;;;;14.76;100.00;101550.56;1692190;83;21110;-43
2021/07/09 03:02:39;;;;;;;2.25;1.57;;;;;;;14.82;100.00;101547.23;1735496;81;20975;-50
2021/07/09 03:05:07;;;;;;;3.85;1.60;;;;;;;14.91;100.00;101545.55;1687469;84;21790;-49
2021/07/09 03:07:33;;;;;;;2.08;1.80;;;;;;;15.02;100.00;101544.94;1657905;84;20986;-49
2021/07/09 03:10:05;;;;;;;1.70;1.57;;;;;;;15.10;100.00;101540.77;1685491;84;21006;-43
2021/07/09 03:12:32;;;;;;;2.17;1.37;;;;;;;15.22;100.00;101547.58;1687089;83;21010;-43
2021/07/09 03:14:58;;;;;;;1.80;1.70;;;;;;;15.40;100.00;101548.02;1704758;84;20943;-50
2021/07/09 03:17:24;;;;;;;3.50;1.40;;;;;;;15.58;100.00;101542.39;1703576;84;21429;-44
2021/07/09 03:19:51;;;;;;;2.85;1.90;;;;;;;15.73;100.00;101537.38;1703362;84;20999;-49
2021/07/09 03:22:19;;;;;;;1.50;1.40;;;;;;;15.87;100.00;101536.96;1689951;84;21481;-50
2021/07/09 03:24:46;;;;;;;2.00;1.52;;;;;;;16.05;100.00;101539.58;1696510;84;21018;-49
2021/07/09 03:27:12;;;;;;;3.80;1.87;;;;;;;16.19;100.00;101541.91;1697960;84;20994;-43
2021/07/09 03:29:38;;;;;;;2.90;1.85;;;;;;;16.35;100.00;101543.97;1687679;84;20918;-43
2021/07/09 03:32:06;;;;;;;3.08;1.87;;;;;;;16.50;100.00;101546.56;1676559;84;21570;-48
2021/07/09 03:34:32;;;;;;;1.70;1.35;;;;;;;16.62;100.00;101543.41;1698871;84;21528;-49
2021/07/09 03:36:58;;;;;;;2.65;1.30;;;;;;;16.70;100.00;101541.93;1698246;84;20997;-43
2021/07/09 03:39:25;;;;;;;2.15;1.75;;;;;;;16.82;100.00;101547.07;1683228;84;21002;-43
2021/07/09 03:41:51;;;;;;;1.82;1.52;;;;;;;16.95;100.00;101540.82;1676646;84;21021;-44
2021/07/09 03:44:19;;;;;;;3.87;1.87;;;;;;;17.11;100.00;101542.81;1695907;84;21046;-43
2021/07/09 03:46:46;;;;;;;2.02;1.60;;;;;;;17.26;100.00;101549.52;1695690;84;21002;-43
2021/07/09 03:49:12;;;;;;;2.40;1.40;;;;;;;17.43;100.00;101560.03;1690216;83;21027;-45
2021/07/09 03:51:39;;;;;;;2.60;2.02;;;;;;;17.62;100.00;101560.03;1701550;83;21025;-43
2021/07/09 03:54:06;;;;;;;2.87;2.37;;;;;;;17.83;100.00;101548.14;1706980;83;21469;-43
2021/07/09 03:56:33;;;;;;;3.70;1.77;;;;;;;18.04;100.00;101549.98;1703570;84;21057;-43
2021/07/09 03:59:01;;;;;;;3.35;1.95;;;;;;;18.19;100.00;101550.27;1691594;84;21072;-49
2021/07/09 04:01:27;;;;;;;3.05;1.98;;;;;;;18.35;100.00;101550.84;1671739;84;21006;-49
2021/07/09 04:03:55;;;;;;;2.75;1.70;;;;;;;18.52;100.00;101548.83;1659740;85;20992;-49
2021/07/09 04:06:22;;;;;;;1.77;1.65;;;;;;;18.69;100.00;101551.81;1707456;82;22016;-48
2021/07/09 04:08:49;;;;;;;1.85;1.65;;;;;;;18.87;100.00;101549.55;1704932;82;21001;-49
2021/07/09 04:11:16;;;;;;;3.72;2.02;;;;;;;19.08;100.00;101547.72;1735781;81;20965;-49
2021/07/09 04:13:42;;;;;;;3.15;2.02;;;;;;;19.39;98.07;101546.48;1724950;82;20991;-43
2021/07/09 04:16:09;;;;;;;1.75;1.62;;;;;;;19.52;97.10;101542.02;1736195;81;21042;-49
2021/07/09 04:18:38;;;;;;;5.62;2.55;;;;;;;19.52;97.10;101542.02;1756813;81;21440;-48
2021/07/09 04:21:04;;;;;;;1.92;1.62;;;;;;;19.65;95.76;101541.13;1757362;81;21015;-44
2021/07/09 04:23:31;;;;;;;3.27;2.10;;;;;;;19.75;95.14;101545.06;1731808;81;21421;-49
2021/07/09 04:25:57;;;;;;;3.17;1.60;;;;;;;19.88;94.49;101548.09;1745359;81;21014;-44
2021/07/09 04:28:23;;;;;;;4.05;2.37;;;;;;;20.03;93.39;101537.17;1727233;81;21449;-49
2021/07/09 04:30:50;;;;;;;2.40;1.92;;;;;;;20.16;92.90;101541.27;1727537;81;20899;-44
2021/07/09 04:33:16;;;;;;;2.00;1.42;;;;;;;20.29;92.17;101541.50;1727321;81;21006;-44
2021/07/09 04:35:43;;;;;;;3.37;1.80;;;;;;;20.43;91.91;101542.22;1727337;82;21022;-44
2021/07/09 04:38:11;;;;;;;3.17;2.10;;;;;;;20.63;91.15;101533.92;1726972;81;21046;-44
2021/07/09 04:40:38;;;;;;;3.52;2.55;;;;;;;20.78;90.53;101538.22;1638182;85;21326;-44
2021/07/09 04:43:04;;;;;;;3.45;2.40;;;;;;;20.92;89.72;101536.14;1734205;81;20991;-44
2021/07/09 04:45:30;;;;;;;4.60;1.75;;;;;;;21.05;89.29;101531.00;1728710;81;21129;-49
2021/07/09 04:47:57;;;;;;;5.20;2.20;;;;;;;21.20;88.74;101531.69;1729308;81;20995;-49
2021/07/09 04:50:24;;;;;;;3.70;2.52;;;;;;;21.34;88.79;101536.53;1737899;81;21026;-49
2021/07/09 04:52:50;;;;;;;2.25;1.77;;;;;;;21.50;88.30;101531.89;1737706;81;20983;-44
2021/07/09 04:55:17;;;;;;;3.62;1.80;;;;;;;21.68;88.28;101526.55;1671857;85;21054;-48
2021/07/09 04:57:43;;;;;;;2.65;1.82;;;;;;;21.89;87.09;101533.66;1696786;84;21503;-45
2021/07/09 05:00:11;;;;;;;2.00;1.70;;;;;;;22.08;86.26;101525.77;1711535;81;20999;-44
2021/07/09 05:02:37;;;;;;;5.22;2.20;;;;;;;22.31;85.51;101529.73;1752888;81;21467;-49
2021/07/09 05:05:12;;;;;;;2.35;1.47;;;;;;;22.50;83.83;101526.52;1747727;81;21007;-43
2021/07/09 05:07:39;;;;;;;2.22;1.57;;;;;;;22.70;82.65;101532.76;1732431;81;21061;-44
2021/07/09 05:10:07;;;;;;;1.52;1.22;;;;;;;22.87;81.51;101523.48;1727247;83;20983;-44
2021/07/09 05:12:33;;;;;;;2.12;1.50;;;;;;;23.04;79.58;101525.36;1674568;84;20953;-49
2021/07/09 05:15:00;;;;;;;2.05;1.40;;;;;;;23.18;78.28;101531.49;1696407;84;21504;-45
2021/07/09 05:17:26;;;;;;;2.10;1.70;;;;;;;23.34;78.71;101528.09;1696029;84;21500;-50
2021/07/09 05:19:52;;;;;;;2.42;1.35;;;;;;;23.50;77.17;101530.52;1681154;84;21086;-43
2021/07/09 05:22:20;;;;;;;1.98;1.45;;;;;;;23.68;76.90;101528.96;1675121;84;21027;-48
2021/07/09 05:24:47;;;;;;;2.47;1.20;;;;;;;23.87;74.62;101527.91;1676162;84;21074;-50
2021/07/09 05:27:15;;;;;;;1.40;1.10;;;;;;;24.04;73.29;101529.70;1679109;84;20995;-49
2021/07/09 05:29:42;;;;;;;1.85;1.20;;;;;;;24.17;71.38;101532.75;1677115;84;21016;-44
2021/07/09 05:32:08;;;;;;;1.52;1.00;;;;;;;24.30;70.35;101523.80;1679152;84;21422;-44
2021/07/09 05:34:35;;;;;;;1.82;1.40;;;;;;;24.45;69.30;101539.06;1721680;81;21020;-44
2021/07/09 05:37:02;;;;;;;1.40;1.20;;;;;;;24.59;68.52;101534.58;1732998;82;21084;-50
2021/07/09 05:39:29;;;;;;;4.10;1.60;;;;;;;24.66;67.83;101537.61;1731877;81;21006;-45
2021/07/09 05:41:58;;;;;;;2.92;1.55;;;;;;;24.74;66.92;101538.06;1727244;81;20979;-49
2021/07/09 05:44:24;;;;;;;1.45;1.30;;;;;;;24.83;66.93;101537.95;1729574;81;21054;-44
2021/07/09 05:46:51;;;;;;;1.67;1.12;;;;;;;24.94;65.33;101543.30;1728362;81;21562;-49
2021/07/09 05:49:17;;;;;;;2.50;1.40;;;;;;;25.01;63.69;101539.33;1676835;85;21002;-50
2021/07/09 05:51:46;;;;;;;1.82;1.47;;;;;;;25.06;63.27;101545.27;1679163;84;21015;-50
2021/07/09 05:54:13;;;;;;;1.35;1.25;;;;;;;25.13;62.87;101540.48;1683975;83;21077;-49
2021/07/09 05:56:40;;;;;;;1.00;0.90;;;;;;;25.18;62.77;101535.48;1672848;84;21029;-49
2021/07/09 05:59:06;;;;;;;3.00;1.75;;;;;;;25.29;62.40;101541.39;1691048;83;21000;-50
2021/07/09 06:01:32;;;;;;;1.57;1.22;;;;;;;25.41;62.70;101536.36;1697046;84;21018;-50
2021/07/09 06:03:59;;;;;;;2.12;1.52;;;;;;;25.56;63.28;101538.40;1688851;84;21405;-50
2021/07/09 06:06:25;;;;;;;1.75;1.00;;;;;;;25.73;62.11;101535.30;1692408;84;21042;-49
2021/07/09 06:08:51;;;;;;;2.15;1.35;;;;;;;25.91;61.94;101540.60;1684575;84;21501;-50
2021/07/09 06:11:18;;;;;;;1.98;1.55;;;;;;;26.09;61.24;101541.92;1697663;84;21030;-44
2021/07/09 06:13:46;;;;;;;1.75;1.22;;;;;;;26.25;59.42;101542.52;1684513;84;21081;-46
2021/07/09 06:16:14;;;;;;;1.77;1.47;;;;;;;26.31;59.80;101538.27;1680652;84;21054;-50
2021/07/09 06:18:40;;;;;;;1.50;1.40;;;;;;;26.38;59.87;101539.28;1690767;84;21630;-50
2021/07/09 06:21:06;;;;;;;1.30;1.20;;;;;;;26.49;58.43;101543.75;1718757;82;21053;-50
2021/07/09 06:23:33;;;;;;;1.32;1.20;;;;;;;26.51;57.46;101541.41;1699732;84;21001;-45
2021/07/09 06:25:59;;;;;;;1.47;0.80;;;;;;;26.53;59.02;101532.64;1708698;83;21019;-45
2021/07/09 06:28:26;;;;;;;1.37;1.22;;;;;;;26.67;59.06;101533.59;1708550;84;21591;-44
2021/07/09 06:30:52;;;;;;;1.80;1.25;;;;;;;26.84;58.39;101529.00;1699599;84;21404;-44
2021/07/09 06:33:18;;;;;;;1.75;1.52;;;;;;;27.03;56.39;101522.64;1709348;82;21014;-45
2021/07/09 06:35:45;;;;;;;1.55;1.00;;;;;;;27.10;56.46;101524.20;1708620;84;21046;-44
2021/07/09 06:38:11;;;;;;;0.98;0.93;;;;;;;27.17;55.77;101529.94;1700530;84;21026;-49
2021/07/09 06:40:38;;;;;;;5.97;1.98;;;;;;;27.23;55.01;101525.72;1708842;84;21031;-49
2021/07/09 06:43:04;;;;;;;1.40;1.30;;;;;;;27.26;54.08;101527.56;1728960;82;20994;-49
2021/07/09 06:45:31;;;;;;;2.10;1.10;;;;;;;27.26;52.81;101524.16;1709351;83;21623;-49
2021/07/09 06:47:58;;;;;;;1.00;0.93;;;;;;;27.27;51.53;101523.57;1730910;82;21011;-44
2021/07/09 06:50:24;;;;;;;1.20;0.90;;;;;;;27.24;51.03;101527.33;1679670;83;21117;-44
2021/07/09 06:52:51;;;;;;;2.27;1.25;;;;;;;27.25;52.25;101521.16;1679772;84;21026;-49
2021/07/09 06:55:18;;;;;;;1.87;1.50;;;;;;;27.33;50.97;101522.11;1745234;81;20983;-49
2021/07/09 06:57:47;;;;;;;1.32;1.20;;;;;;;27.42;50.12;101524.09;1764389;80;21035;-44
2021/07/09 07:00:17;;;;;;;2.05;1.10;;;;;;;27.42;50.11;101526.33;1675001;84;21424;-44
2021/07/09 07:02:44;;;;;;;2.05;1.17;;;;;;;27.38;50.15;101526.83;1691002;83;21022;-49
2021/07/09 07:05:12;;;;;;;2.12;1.40;;;;;;;27.39;49.53;101525.64;1701676;83;21046;-44
2021/07/09 07:07:38;;;;;;;2.83;1.90;;;;;;;27.41;49.07;101524.69;1683725;83;21066;-49
2021/07/09 07:10:06;;;;;;;3.50;1.65;;;;;;;27.42;49.23;101521.28;1690166;83;21026;-44
2021/07/09 07:12:34;;;;;;;6.83;1.67;;;;;;;27.45;49.85;101522.78;1686416;83;21010;-45
2021/07/09 07:15:02;;;;;;;2.92;1.57;;;;;;;27.49;50.46;101528.45;1678013;84;21010;-44
2021/07/09 07:17:28;;;;;;;1.40;1.30;;;;;;;27.57;50.70;101520.42;1670606;85;21038;-45
2021/07/09 07:19:57;;;;;;;1.27;0.98;;;;;;;27.70;51.11;101521.67;1691608;84;21046;-44
2021/07/09 07:22:24;;;;;;;2.00;1.27;;;;;;;27.82;51.13;101529.96;1697439;84;20998;-44
2021/07/09 07:24:51;;;;;;;1.85;1.25;;;;;;;27.88;49.92;101518.03;1756145;81;20999;-44
2021/07/09 07:27:24;;;;;;;1.35;1.25;;;;;;;28.00;51.00;101519.05;1726922;83;21010;-44
2021/07/09 07:29:47;;;;;;;1.95;1.40;;;;;;;28.22;51.34;101516.04;1727594;81;21054;-44
2021/07/09 07:32:14;;;;;;;2.65;1.47;;;;;;;28.36;49.20;101515.45;1739545;81;21034;-49
2021/07/09 07:34:42;;;;;;;2.62;1.40;;;;;;;28.35;48.09;101511.03;1727252;83;21453;-44
2021/07/09 07:37:08;;;;;;;2.40;1.62;;;;;;;28.36;49.36;101507.02;1727177;82;21011;-49
2021/07/09 07:39:35;;;;;;;2.47;1.80;;;;;;;28.40;48.57;101502.28;1728004;81;21000;-43
2021/07/09 07:42:03;;;;;;;1.30;1.20;;;;;;;28.47;48.75;101501.83;1753807;81;20991;-49
2021/07/09 07:44:29;;;;;;;1.90;1.35;;;;;;;28.47;49.19;101499.62;1756916;81;20987;-49
2021/07/09 07:46:56;;;;;;;1.82;1.67;;;;;;;28.50;48.83;101496.86;1738204;81;20986;-49
2021/07/09 07:49:23;;;;;;;1.72;1.50;;;;;;;28.53;49.62;101502.31;1716481;81;21554;-49
2021/07/09 07:51:50;;;;;;;1.65;1.17;;;;;;;28.62;48.25;101497.25;1757416;81;20984;-49
2021/07/09 07:54:18;;;;;;;2.42;1.45;;;;;;;28.67;47.31;101484.87;1757478;81;21014;-49
2021/07/09 07:56:45;;;;;;;2.15;1.22;;;;;;;28.61;47.59;101490.02;1747306;81;20983;-49
2021/07/09 07:59:12;;;;;;;2.05;1.75;;;;;;;28.66;47.85;101491.66;1726942;83;21744;-45
2021/07/09 08:01:38;;;;;;;2.95;1.50;;;;;;;28.73;49.33;101488.39;1726539;83;21057;-44
2021/07/09 08:04:05;;;;;;;3.60;1.30;;;;;;;28.90;48.76;101481.98;1727916;81;20994;-43
2021/07/09 08:06:31;;;;;;;1.30;1.20;;;;;;;29.01;46.47;101480.14;1728824;81;21022;-49
2021/07/09 08:08:58;;;;;;;1.47;1.27;;;;;;;29.02;46.14;101485.97;1746880;81;20986;-49
2021/07/09 08:11:26;;;;;;;2.25;1.30;;;;;;;29.06;47.26;101477.02;1755123;81;21011;-49
2021/07/09 08:13:52;;;;;;;1.85;1.40;;;;;;;29.20;46.92;101470.75;1761722;80;21050;-49
2021/07/09 08:16:19;;;;;;;2.62;1.27;;;;;;;29.36;47.20;101473.38;1765554;81;20911;-46
2021/07/09 08:18:46;;;;;;;1.57;1.37;;;;;;;29.51;47.32;101468.72;1763232;81;21476;-49
2021/07/09 08:21:13;;;;;;;2.80;1.70;;;;;;;29.57;46.61;101462.37;1737734;81;20964;-44
2021/07/09 08:23:40;;;;;;;3.12;1.67;;;;;;;29.67;46.88;101460.86;1735440;82;20986;-44
2021/07/09 08:26:07;;;;;;;1.55;1.45;;;;;;;29.86;47.29;101464.69;1735787;81;21014;-45
2021/07/09 08:28:33;;;;;;;1.37;1.17;;;;;;;29.93;45.65;101454.30;1735488;82;21030;-44
2021/07/09 08:31:00;;;;;;;1.67;1.57;;;;;;;30.06;46.67;101459.64;1715264;81;21029;-45
2021/07/09 08:33:26;;;;;;;1.70;1.42;;;;;;;30.15;45.30;101462.95;1685756;84;21480;-48
2021/07/09 08:35:52;;;;;;;1.82;1.52;;;;;;;30.13;45.37;101459.09;1735214;82;21050;-49
2021/07/09 08:38:19;;;;;;;3.00;1.70;;;;;;;30.17;45.71;101459.15;1759084;81;21503;-44
2021/07/09 08:40:46;;;;;;;2.47;1.80;;;;;;;30.21;42.51;101456.54;1751016;81;21495;-44
2021/07/09 08:43:12;;;;;;;2.02;1.10;;;;;;;30.18;43.56;101455.92;1735250;82;21033;-49
2021/07/09 08:45:39;;;;;;;1.45;1.05;;;;;;;30.18;44.51;101453.09;1735425;82;21022;-44
2021/07/09 08:48:07;;;;;;;2.52;1.57;;;;;;;30.21;43.52;101450.91;1735491;82;21562;-45
2021/07/09 08:50:34;;;;;;;2.42;1.77;;;;;;;30.30;42.14;101449.20;1714660;81;21141;-45
2021/07/09 08:53:00;;;;;;;3.50;1.57;;;;;;;30.31;43.65;101449.40;1698474;84;20993;-45
2021/07/09 08:55:27;;;;;;;3.67;2.25;;;;;;;30.34;41.89;101445.83;1740247;81;21113;-50
2021/07/09 08:57:55;;;;;;;3.22;1.20;;;;;;;30.34;40.57;101443.00;1687692;85;21477;-49
2021/07/09 09:00:36;;;;;;;1.22;1.12;;;;;;;30.35;41.88;101450.25;1669564;84;21015;-44
2021/07/09 09:03:18;;;;;;;1.30;1.17;;;;;;;30.31;40.18;101445.17;1696517;83;21079;-48
2021/07/09 09:05:45;;;;;;;1.22;1.07;;;;;;;30.25;41.79;101443.94;1710381;83;21011;-49
2021/07/09 09:08:13;;;;;;;1.62;1.10;;;;;;;30.29;43.93;101439.14;1695535;84;21076;-45
2021/07/09 09:10:46;;;;;;;1.40;1.30;;;;;;;30.46;41.49;101447.49;1696440;83;20984;-49
2021/07/09 09:13:18;;;;;;;2.58;1.55;;;;;;;30.58;40.50;101446.38;1695637;83;21791;-49
2021/07/09 09:15:55;;;;;;;1.37;1.27;;;;;;;30.58;39.85;101444.96;1687874;83;21007;-49
2021/07/09 09:18:29;;;;;;;1.07;0.98;;;;;;;30.57;40.38;101436.30;1674653;84;21021;-45
2021/07/09 09:21:02;;;;;;;1.27;1.17;;;;;;;30.60;40.81;101439.13;1701699;83;21008;-45
2021/07/09 09:23:30;;;;;;;2.37;1.65;;;;;;;30.63;39.29;101438.95;1707927;83;21495;-44
2021/07/09 09:25:56;;;;;;;1.67;1.32;;;;;;;30.55;41.17;101434.47;1689424;83;20958;-44
2021/07/09 09:28:23;;;;;;;1.27;1.10;;;;;;;30.51;38.39;101427.38;1698779;83;21540;-49
2021/07/09 09:30:54;;;;;;;1.65;1.25;;;;;;;30.43;37.34;101424.32;1716185;83;21022;-49
2021/07/09 09:33:20;;;;;;;4.10;1.98;;;;;;;30.37;37.08;101425.30;1729078;82;21049;-44
2021/07/09 09:35:53;;;;;;;2.10;1.50;;;;;;;30.49;38.59;101420.52;1722110;83;21159;-50
2021/07/09 09:38:27;;;;;;;1.75;1.20;;;;;;;30.63;39.03;101414.97;1719390;83;21002;-45
2021/07/09 09:40:53;;;;;;;1.77;1.25;;;;;;;30.72;37.74;101411.81;1721124;83;21098;-44
2021/07/09 09:43:22;;;;;;;2.77;1.50;;;;;;;30.64;37.34;101417.41;1699537;83;21009;-49
2021/07/09 09:46:09;;;;;;;1.70;1.60;;;;;;;30.64;37.53;101413.79;1707518;83;21097;-50
2021/07/09 09:48:47;;;;;;;2.27;1.20;;;;;;;30.79;39.42;101407.02;1695176;84;21034;-49
2021/07/09 09:51:36;;;;;;;1.95;1.30;;;;;;;30.93;37.60;101411.12;1695226;83;21009;-50
2021/07/09 09:54:06;;;;;;;2.65;1.25;;;;;;;31.02;38.55;101408.75;1667123;83;21033;-45
2021/07/09 09:56:46;;;;;;;2.35;1.42;;;;;;;31.14;37.47;101399.92;1724367;83;21392;-45
2021/07/09 09:59:22;;;;;;;1.82;1.30;;;;;;;31.18;35.87;101402.16;1724052;83;21009;-47
2021/07/09 10:02:05;;;;;;;3.58;1.40;;;;;;;31.24;36.55;101399.14;1718858;83;21058;-45
2021/07/09 10:04:32;;;;;;;3.22;1.52;;;;;;;31.24;38.77;101403.37;1694535;84;21010;-49
2021/07/09 10:06:59;;;;;;;1.60;1.17;;;;;;;31.29;37.14;101401.58;1694985;84;21062;-50
2021/07/09 10:09:26;;;;;;;3.67;1.15;;;;;;;31.37;37.20;101400.98;1695334;84;21006;-44
2021/07/09 10:11:53;;;;;;;2.65;1.45;;;;;;;31.51;36.14;101401.66;1665367;84;21307;-50
2021/07/09 10:14:22;;;;;;;1.02;0.80;;;;;;;31.54;35.75;101391.58;1688531;83;21030;-50
2021/07/09 10:16:51;;;;;;;1.32;1.10;;;;;;;31.42;36.01;101387.12;1672188;85;21492;-44
2021/07/09 10:19:23;;;;;;;2.33;1.65;;;;;;;31.42;35.69;101382.27;1673692;84;21658;-44
2021/07/09 10:21:49;;;;;;;1.70;1.30;;;;;;;31.38;35.28;101382.02;1691869;84;20997;-45
2021/07/09 10:24:17;;;;;;;1.70;1.40;;;;;;;31.34;35.29;101388.29;1663893;86;21590;-45
2021/07/09 10:26:50;;;;;;;2.80;1.75;;;;;;;31.21;35.05;101388.66;1672463;85;21513;-50
2021/07/09 10:29:20;;;;;;;2.15;1.37;;;;;;;31.04;33.99;101378.12;1691741;84;20990;-50
2021/07/09 10:31:49;;;;;;;1.37;1.12;;;;;;;30.94;37.24;101383.93;1727196;81;21350;-50
2021/07/09 10:34:45;;;;;;;1.77;1.30;;;;;;;31.00;38.57;101378.70;1727621;83;21038;-45
2021/07/09 10:37:28;;;;;;;1.85;1.22;;;;;;;31.12;37.96;101379.75;1730991;81;20852;-44
2021/07/09 10:40:10;;;;;;;2.33;1.40;;;;;;;31.32;37.08;101379.41;1743380;81;21019;-50
2021/07/09 10:42:44;;;;;;;1.62;1.52;;;;;;;31.62;34.93;101368.58;1730977;81;21623;-50
2021/07/09 10:45:21;;;;;;;1.72;1.30;;;;;;;31.89;35.71;101368.98;1749751;81;21370;-50
2021/07/09 10:48:12;;;;;;;2.50;1.12;;;;;;;32.03;34.78;101372.45;1727892;81;21014;-50
2021/07/09 10:50:48;;;;;;;2.37;1.62;;;;;;;32.13;35.77;101368.00;1737538;81;20975;-45
2021/07/09 10:53:19;;;;;;;2.20;1.40;;;;;;;32.39;36.29;101365.30;1733578;81;20959;-50
2021/07/09 10:56:08;;;;;;;2.77;1.57;;;;;;;32.44;34.46;101366.30;1724898;82;21034;-50
2021/07/09 10:58:41;;;;;;;2.10;1.65;;;;;;;32.34;33.76;101354.41;1727785;81;20994;-50
2021/07/09 11:01:28;;;;;;;1.92;1.55;;;;;;;32.25;35.17;101349.81;1695000;83;21508;-46
2021/07/09 11:04:07;;;;;;;2.05;1.22;;;;;;;32.25;36.75;101351.23;1688359;84;21081;-45
2021/07/09 11:06:39;;;;;;;1.77;1.40;;;;;;;32.37;34.69;101342.31;1678676;84;20967;-45
2021/07/09 11:09:13;;;;;;;1.67;1.37;;;;;;;32.47;34.80;101347.12;1677065;85;21542;-50
2021/07/09 11:11:49;;;;;;;2.50;1.60;;;;;;;32.32;33.07;101335.63;1685638;84;21031;-50
2021/07/09 11:14:20;;;;;;;2.30;1.30;;;;;;;32.17;34.77;101336.88;1696448;83;21169;-50
2021/07/09 11:17:00;;;;;;;2.98;1.40;;;;;;;32.24;35.32;101335.45;1687873;83;21043;-45
2021/07/09 11:19:32;;;;;;;3.17;1.80;;;;;;;32.34;36.52;101328.37;1714128;83;21030;-45
2021/07/09 11:22:07;;;;;;;2.20;1.32;;;;;;;32.47;36.65;101332.15;1713055;82;21001;-49
2021/07/09 11:24:41;;;;;;;2.12;1.50;;;;;;;32.39;35.99;101335.61;1714548;83;20992;-50
2021/07/09 11:27:08;;;;;;;2.50;1.60;;;;;;;32.42;37.19;101327.75;1701662;83;21086;-45